Snow/Ice From: 23-01-2020 01:00 Until: 25-01-2020 00:00 warning for: Snow/Ice Level: Yellow info button


Værstasjon lokalisert i Sentrumsveien 49 , Siljan , Telemark , Norway : Station location Siljan , Telemark , Norway

Siden oppdateres fra en Oregon Scientific WMR 200 trådløs Værstasjon : Weatherstation Oregon Scientific WMR 200

Værprogramvare som kjøres lokalt er Weather Display 10.37s : Weatherprogram Weather Display 10.37s



Sentrumsveien Siljan  Sentrumsveien Siljan


F 32 Kikut  F 32 Kikut


Lyn radar more information blitzortung!


Varsel for Snø / Is more information rain snow radar


Besøk våre andre vær nettsider:

Template documentation
and downloads

And another site



Nære METAR Rapporter

Warning: A non-numeric value encountered in /customers/a/0/a/siljanweather.no/httpd.www/weather28/metar/metarDisplay.php on line 166 Notice: A non well formed numeric value encountered in /customers/a/0/a/siljanweather.no/httpd.www/weather28/metar/wsMetarTxt.php on line 415 Warning: A non-numeric value encountered in /customers/a/0/a/siljanweather.no/httpd.www/weather28/metar/metarDisplay.php on line 166
   
ENTO - Sandefjord Torp
Oppdatert: 24-01-2020 10:50
Klart  
Klart  
   Vind: SSW 5.1 m/s
Vind: SSW 5.1 m/s
Temperatur: 5°C
Wind Chill: 1°C
Duggpunkt: 2°C
Luftfuktighet: 81%
Barometer: 1007 hPa
Sikt: mer enn 10 km
Sky detaljer: Klart
ENTO 240950Z 21010KT CAVOK 05/02 Q1007 NOSIG
ENGM - Oslo Gardermoen
Oppdatert: 24-01-2020 10:50
Noen Skyer  
Noen Skyer  
   Vind: Sør 1.5 m/s
Vind: Sør 1.5 m/s
Temperatur: 1°C
Wind Chill: -1°C
Duggpunkt: -1°C
Luftfuktighet: 87%
Barometer: 1004 hPa
Sky Radar: Noen Skyer
Sikt: mer enn 10 km
Sky detaljer: Noen Skyer 3000 ft
ENGM 240950Z 18003KT 140V240 9999 FEW030 01/M01 Q1004 NOSIG
ENZV - Stavanger Sola
Oppdatert: 24-01-2020 11:20
Noen Skyer  
Noen Skyer  
   Vind: Vest 3.6 m/s
Vind: Vest 3.6 m/s
Temperatur: 7°C
Wind Chill: 4°C
Duggpunkt: 3°C
Luftfuktighet: 76%
Barometer: 1013 hPa
Sky Radar: Noen Skyer
Sikt: mer enn 10 km
Sky detaljer: Noen Skyer 2000 ft
ENZV 241020Z 26007KT 9999 FEW020 07/03 Q1013 TEMPO 26012G22KT SHRA
ENSL - Sleipner A Plattform
Oppdatert: 24-01-2020 10:50
For det meste skyet  
For det meste skyet  
   Vind: VNV 12.3 m/s
Vind: VNV 12.3 m/s
Temperatur: 7°C
Wind Chill: 2°C
Duggpunkt: 3°C
Luftfuktighet: 76%
Barometer: 1014 hPa
Sky Radar: For det meste skyet
Sikt: 10 km
Sky detaljer: For det meste skyet 2100 ft
ENSL 240950Z AUTO 29024KT 9999NDV BKN021/// 07/03 Q1014 W05/S4
VHHH - Hong Kong International Airport
Oppdatert: 24-01-2020 11:00
Noen Skyer  
Noen Skyer  
   Vind: ØSØ 6.7 m/s
Vind: ØSØ 6.7 m/s
Temperatur: 22°C
Duggpunkt: 19°C
Luftfuktighet: 83%
Barometer: 1016 hPa
Sky Radar: Noen Skyer
Sikt: mer enn 10 km
Sky detaljer: Noen Skyer 1200 ft
VHHH 241000Z 11013KT 9999 FEW012 22/19 Q1016 NOSIG
VTBS - Bangkok Suvarnabhumi
Oppdatert: 24-01-2020 11:00
Noen Skyer  
Noen Skyer  
   Vind: Sør 7.2 m/s
Vind: Sør 7.2 m/s
Temperatur: 31°C
Varme Index: 37°C
Duggpunkt: 24°C
Luftfuktighet: 66%
Barometer: 1009 hPa
Sky Radar: Noen Skyer
Sikt: 9 km
Sky detaljer: Noen Skyer 3500 ft
VTBS 241000Z 19014KT 9000 FEW035 31/24 Q1009 NOSIG
VTBU - U-Tapao International Airport
Oppdatert: 24-01-2020 11:00
Noen Skyer  
Noen Skyer  
   Vind: Sør 5.1 m/s
Vind: Sør 5.1 m/s
Temperatur: 29°C
Varme Index: 33°C
Duggpunkt: 23°C
Luftfuktighet: 70%
Barometer: 1010 hPa
Sky Radar: Noen Skyer
Sikt: mer enn 10 km
Sky detaljer: Noen Skyer 2000 ft
VTBU 241000Z 19010KT 9999 FEW020 29/23 Q1010 NOSIG
VTUD - Udon Thani International Airport
Oppdatert: 24-01-2020 11:00
Vekslende skyet  
Vekslende skyet  
   Vind: NØ 2.1 m/s
Vind: NØ 2.1 m/s
Temperatur: 33°C
Duggpunkt: 16°C
Luftfuktighet: 36%
Barometer: 1008 hPa
Sky Radar: Vekslende skyet
Sikt: 8 km
Sky detaljer: Vekslende skyet
VTUD 241000Z 04004KT 360V070 8000 NSC 33/16 Q1008 NOSIG
 

Script er utviklet av  Saratoga-weather.org Anpasset for malen gjennom  Weerstation Leuven

Du finner vår vær info også på:

European Weather Network

Weather Underground

HAMweather, WeatherForYou, PWS Weather

Utstyr vi bruker:

Vær-stasjon
Oregon Scientific WMR 200

Vær-programmet
Weather Display

Vær-server
Gigabyte Brix

Leverandør
Onecom

Oregon Scientific WMR 200

Weather Display

Gigabyte Brix

Onecom



Værstasjon lokalisert i Sentrumsveien 49 , Siljan , Telemark , Norway : Station location Siljan , Telemark , Norway

Siden oppdateres fra en Oregon Scientific WMR 200 trådløs Værstasjon : Weatherstation Oregon Scientific WMR 200

Værprogramvare som kjøres lokalt er Weather Display 10.37s : Weatherprogram Weather Display 10.37s